Time;durP1;ratioP1;P1;durP2;ratioP2;P2;SDS_P1;SDS_P2;PMS_P1;PMS_P2;Temp;Humidity;BMP_temperature;BMP_pressure;BME280_temperature;BME280_humidity;BME280_pressure;Samples;Min_cycle;Max_cycle;Signal;HPM_P1;HPM_P2
2023/07/11 00:00:17;;;;;;;7.00;6.38;;;;;;;25.85;38.74;86919.47;4970621;28;20203;-87
2023/07/11 00:02:43;;;;;;;6.82;6.15;;;;;;;25.81;39.09;87053.19;4968096;28;20296;-88
2023/07/11 00:05:12;;;;;;;6.65;6.05;;;;;;;25.87;38.83;87132.16;4971720;28;21075;-87
2023/07/11 00:07:39;;;;;;;6.75;6.15;;;;;;;25.84;39.03;87235.75;4970291;28;20231;-87
2023/07/11 00:10:06;;;;;;;6.55;6.00;;;;;;;25.79;38.98;87302.97;4969883;28;20203;-87
2023/07/11 00:12:33;;;;;;;6.60;6.00;;;;;;;25.75;39.09;87408.47;4969942;28;20199;-87
2023/07/11 00:14:59;;;;;;;6.82;6.13;;;;;;;25.66;39.74;87513.16;4969908;28;20227;-87
2023/07/11 00:17:26;;;;;;;6.63;6.03;;;;;;;25.66;39.63;87600.72;4970450;28;20685;-88
2023/07/11 00:19:54;;;;;;;6.47;5.88;;;;;;;25.67;39.67;87641.63;4969930;28;20211;-87
2023/07/11 00:22:23;;;;;;;8.07;5.78;;;;;;;25.67;39.92;87754.06;4970049;28;20204;-87
2023/07/11 00:24:51;;;;;;;6.88;6.28;;;;;;;25.62;39.70;87821.22;4969680;28;20625;-87
2023/07/11 00:27:20;;;;;;;6.88;6.28;;;;;;;25.65;39.85;87927.47;4969857;28;20878;-87
2023/07/11 00:29:47;;;;;;;6.60;6.00;;;;;;;25.66;39.78;87942.78;4969944;28;20208;-87
2023/07/11 00:32:14;;;;;;;6.70;6.10;;;;;;;25.65;39.89;88020.28;4969521;28;20208;-88
2023/07/11 00:34:41;;;;;;;7.47;6.30;;;;;;;25.61;40.22;88063.72;4968492;28;20283;-87
2023/07/11 00:37:08;;;;;;;7.38;6.68;;;;;;;25.44;40.61;88066.78;4970290;28;20702;-85
2023/07/11 00:39:36;;;;;;;6.78;6.18;;;;;;;25.43;41.16;88196.13;4969458;28;20200;-87
2023/07/11 00:42:07;;;;;;;6.93;6.32;;;;;;;25.48;40.46;88225.19;4969894;28;20589;-87
2023/07/11 00:44:55;;;;;;;7.13;6.47;;;;;;;25.49;40.71;88307.50;4969725;28;20766;-87
2023/07/11 00:47:23;;;;;;;7.00;6.50;;;;;;;25.42;40.89;88281.50;4969889;28;20224;-87
2023/07/11 00:49:52;;;;;;;8.13;7.32;;;;;;;25.36;41.08;88352.41;4967484;28;20283;-87
2023/07/11 00:52:20;;;;;;;7.72;6.90;;;;;;;25.32;41.51;88393.19;4968987;28;20219;-88
2023/07/11 00:54:50;;;;;;;7.28;6.57;;;;;;;25.35;41.14;88397.59;4969445;28;20227;-87
2023/07/11 00:57:18;;;;;;;7.00;6.35;;;;;;;25.32;41.16;88475.47;4969853;28;20208;-87
2023/07/11 00:59:44;;;;;;;7.80;6.90;;;;;;;25.29;41.32;88459.84;4969555;28;20207;-87
2023/07/11 01:02:15;;;;;;;6.88;6.28;;;;;;;25.22;41.67;88515.38;4969519;28;20207;-87
2023/07/11 01:04:42;;;;;;;7.63;6.20;;;;;;;25.26;41.34;88600.13;4969069;28;20200;-87
2023/07/11 01:07:11;;;;;;;7.82;6.13;;;;;;;25.27;41.11;88575.28;4967370;28;20235;-88
2023/07/11 01:09:37;;;;;;;7.65;6.85;;;;;;;25.23;41.19;88648.34;4964775;28;20215;-88
2023/07/11 01:12:12;;;;;;;7.47;6.88;;;;;;;25.17;41.92;88800.75;4970287;28;20228;-87
2023/07/11 01:14:40;;;;;;;7.03;6.10;;;;;;;25.17;41.73;88886.81;4965554;28;20191;-87
2023/07/11 01:17:23;;;;;;;6.97;6.28;;;;;;;25.20;41.58;88999.06;4975577;28;20236;-87
2023/07/11 01:19:50;;;;;;;7.35;6.05;;;;;;;25.23;41.36;89011.34;4992623;28;20269;-87
2023/07/11 01:22:18;;;;;;;6.80;6.20;;;;;;;25.19;41.43;89066.72;4986678;28;20204;-87
2023/07/11 01:24:45;;;;;;;7.30;6.60;;;;;;;25.17;41.92;89137.44;4972784;28;20301;-88
2023/07/11 01:27:11;;;;;;;6.75;6.05;;;;;;;25.23;41.50;89183.06;4973233;28;20224;-87
2023/07/11 01:29:38;;;;;;;6.97;6.38;;;;;;;25.21;41.66;89247.81;4973408;28;20207;-87
2023/07/11 01:32:05;;;;;;;9.02;6.50;;;;;;;25.23;41.30;89225.16;4972257;28;20204;-87
2023/07/11 01:34:32;;;;;;;6.50;5.90;;;;;;;25.19;41.56;89224.56;4972707;28;20211;-87
2023/07/11 01:36:58;;;;;;;7.55;6.75;;;;;;;25.19;41.56;89316.63;4973131;28;20712;-88
2023/07/11 01:39:26;;;;;;;6.53;6.03;;;;;;;25.06;41.99;89332.38;4970613;28;20200;-89
2023/07/11 01:41:53;;;;;;;7.18;6.57;;;;;;;25.01;42.04;89340.06;4972738;28;20209;-87
2023/07/11 01:44:22;;;;;;;6.90;6.32;;;;;;;24.95;42.46;89392.41;4972726;28;20204;-87
2023/07/11 01:46:48;;;;;;;6.97;6.38;;;;;;;24.92;42.42;89408.25;4972603;28;20231;-87
2023/07/11 01:49:14;;;;;;;6.95;6.30;;;;;;;24.89;42.26;89409.81;4973155;28;20227;-87
2023/07/11 01:51:45;;;;;;;9.02;6.03;;;;;;;24.89;42.17;89506.38;4973143;28;20227;-87
2023/07/11 01:54:11;;;;;;;6.80;6.20;;;;;;;24.80;42.27;89559.56;4971063;28;20243;-87
2023/07/11 01:56:40;;;;;;;6.45;5.85;;;;;;;24.82;42.76;89657.19;4971887;28;20263;-87
2023/07/11 01:59:07;;;;;;;6.72;6.15;;;;;;;24.78;42.94;89707.19;4972367;28;20573;-87
2023/07/11 02:01:33;;;;;;;6.93;6.32;;;;;;;24.78;42.53;89686.16;4972277;28;20208;-85
2023/07/11 02:04:00;;;;;;;6.57;6.07;;;;;;;24.72;42.59;89679.91;4975720;28;20195;-88
2023/07/11 02:06:28;;;;;;;6.40;5.80;;;;;;;24.62;43.20;89696.66;4972890;28;20589;-87
2023/07/11 02:08:54;;;;;;;6.40;5.90;;;;;;;24.58;43.09;89687.34;4971895;28;20319;-87
2023/07/11 02:11:21;;;;;;;6.93;6.30;;;;;;;24.58;42.42;89661.81;4970686;28;20271;-87
2023/07/11 02:13:51;;;;;;;5.65;5.22;;;;;;;24.64;42.20;89612.84;4971827;28;20211;-88
2023/07/11 02:16:19;;;;;;;6.70;6.10;;;;;;;24.72;41.11;89474.09;4971932;28;20220;-87
2023/07/11 02:18:45;;;;;;;7.10;5.90;;;;;;;24.72;41.07;89397.88;4987852;28;20199;-87
2023/07/11 02:21:11;;;;;;;7.05;6.45;;;;;;;24.77;40.51;89363.19;4991741;28;20637;-88
2023/07/11 02:23:38;;;;;;;6.53;5.80;;;;;;;24.75;40.34;89350.47;4976324;28;20696;-87
2023/07/11 02:26:04;;;;;;;6.28;5.78;;;;;;;24.68;41.16;89378.81;4971783;28;20224;-87
2023/07/11 02:28:31;;;;;;;6.22;5.72;;;;;;;24.69;41.12;89367.88;4970237;28;20224;-86
2023/07/11 02:30:59;;;;;;;6.70;6.10;;;;;;;24.68;40.95;89344.66;4971451;28;20204;-87
2023/07/11 02:33:26;;;;;;;9.27;5.70;;;;;;;24.75;40.89;89408.31;4971789;28;20212;-87
2023/07/11 02:35:52;;;;;;;6.13;5.60;;;;;;;24.62;41.71;89401.50;4971544;28;20220;-87
2023/07/11 02:38:19;;;;;;;6.35;5.78;;;;;;;24.47;41.95;89363.59;4971604;28;20674;-87
2023/07/11 02:40:48;;;;;;;6.50;6.00;;;;;;;24.43;42.31;89374.19;4971989;28;20204;-87
2023/07/11 02:43:16;;;;;;;7.05;6.10;;;;;;;24.40;42.33;89402.03;4969693;28;20216;-87
2023/07/11 02:45:42;;;;;;;6.35;5.80;;;;;;;24.40;42.18;89390.78;4959521;28;20282;-83
2023/07/11 02:48:10;;;;;;;5.93;5.43;;;;;;;24.41;42.03;89377.25;4974949;28;20282;-83
2023/07/11 02:50:37;;;;;;;6.30;5.70;;;;;;;24.47;41.88;89369.56;4974966;28;20207;-84
2023/07/11 02:53:03;;;;;;;6.43;5.82;;;;;;;24.51;41.92;89424.69;4974527;28;20200;-83
2023/07/11 02:55:29;;;;;;;6.90;5.90;;;;;;;24.61;41.91;89520.94;4974597;28;20232;-83
2023/07/11 02:57:56;;;;;;;6.10;5.60;;;;;;;24.63;42.28;89600.84;4975018;28;20211;-83
2023/07/11 03:00:22;;;;;;;6.43;5.82;;;;;;;24.60;42.69;89624.59;4973056;28;20200;-83
2023/07/11 03:02:49;;;;;;;6.72;6.13;;;;;;;24.58;42.23;89538.28;4974072;28;20212;-83
2023/07/11 03:05:16;;;;;;;7.20;6.50;;;;;;;24.50;42.70;89499.41;4977704;28;20228;-84
2023/07/11 03:07:43;;;;;;;6.25;5.75;;;;;;;24.45;42.35;89463.84;4973563;28;20228;-83
2023/07/11 03:10:10;;;;;;;6.05;5.55;;;;;;;24.39;42.55;89462.88;4973057;28;20208;-83
2023/07/11 03:12:36;;;;;;;6.93;6.25;;;;;;;24.26;42.94;89460.16;4974324;28;20208;-84
2023/07/11 03:15:03;;;;;;;6.57;5.90;;;;;;;24.21;43.10;89450.13;4970750;28;20254;-82
2023/07/11 03:17:30;;;;;;;6.55;5.90;;;;;;;24.19;43.29;89502.31;4972176;28;20650;-81
2023/07/11 03:19:56;;;;;;;6.90;6.40;;;;;;;24.14;43.77;89588.72;4972008;28;20259;-82
2023/07/11 03:22:24;;;;;;;6.50;5.90;;;;;;;24.17;43.73;89632.56;4971516;28;20618;-83
2023/07/11 03:24:50;;;;;;;6.93;6.30;;;;;;;24.18;43.42;89618.28;4989865;28;20207;-82
2023/07/11 03:27:17;;;;;;;6.53;5.93;;;;;;;24.17;43.55;89635.19;4991228;28;20234;-82
2023/07/11 03:29:43;;;;;;;6.15;5.65;;;;;;;24.25;43.33;89673.34;4974207;28;20717;-82
2023/07/11 03:32:10;;;;;;;6.75;6.15;;;;;;;24.22;42.98;89561.91;4968692;28;20231;-82
2023/07/11 03:34:37;;;;;;;6.43;5.88;;;;;;;24.28;42.73;89557.69;4971321;28;20204;-84
2023/07/11 03:37:03;;;;;;;6.32;5.72;;;;;;;24.36;42.82;89655.50;4976102;28;20616;-83
2023/07/11 03:39:32;;;;;;;6.35;5.75;;;;;;;24.39;42.72;89644.91;4981221;28;20203;-83
2023/07/11 03:41:59;;;;;;;6.47;5.88;;;;;;;24.39;42.60;89547.69;4971972;28;20200;-83
2023/07/11 03:44:25;;;;;;;7.03;6.32;;;;;;;24.35;42.44;89515.50;4971410;28;20270;-83
2023/07/11 03:46:52;;;;;;;7.38;5.90;;;;;;;24.37;42.08;89499.31;4971059;28;20303;-83
2023/07/11 03:49:18;;;;;;;6.57;5.53;;;;;;;24.43;43.08;89692.16;4968824;28;20578;-83
2023/07/11 03:51:44;;;;;;;6.50;5.88;;;;;;;24.52;42.41;89620.63;4970714;28;20207;-84
2023/07/11 03:54:11;;;;;;;6.43;5.82;;;;;;;24.41;42.01;89458.69;4970584;28;20215;-83
2023/07/11 03:56:38;;;;;;;7.65;6.05;;;;;;;24.32;42.11;89392.09;4971110;28;20232;-82
2023/07/11 03:59:05;;;;;;;7.40;6.05;;;;;;;24.25;42.60;89390.38;4976543;28;20192;-83
2023/07/11 04:01:31;;;;;;;9.52;6.22;;;;;;;24.32;42.40;89442.75;4969705;28;20204;-82
2023/07/11 04:03:58;;;;;;;6.75;6.15;;;;;;;24.40;41.96;89485.38;4969031;28;20600;-83
2023/07/11 04:06:24;;;;;;;6.47;5.93;;;;;;;24.39;41.83;89405.06;4970201;28;20319;-83
2023/07/11 04:08:50;;;;;;;7.65;6.03;;;;;;;24.37;42.10;89439.63;4968005;28;20224;-82
2023/07/11 04:11:17;;;;;;;8.02;6.22;;;;;;;24.43;42.24;89508.22;4970630;28;20616;-83
2023/07/11 04:13:45;;;;;;;8.07;5.90;;;;;;;24.43;42.22;89477.41;4970144;28;20204;-83
2023/07/11 04:16:11;;;;;;;7.40;6.57;;;;;;;24.48;42.11;89476.16;4969800;28;20295;-83
2023/07/11 04:18:37;;;;;;;5.88;5.38;;;;;;;24.52;42.67;89615.38;4970440;28;20197;-82
2023/07/11 04:21:04;;;;;;;8.65;6.20;;;;;;;24.63;42.37;89650.78;4968125;28;20220;-83
2023/07/11 04:23:30;;;;;;;6.15;5.65;;;;;;;24.60;41.98;89558.88;4970438;28;20628;-82
2023/07/11 04:25:57;;;;;;;6.43;5.80;;;;;;;24.62;42.02;89512.66;4970415;28;20220;-83
2023/07/11 04:28:23;;;;;;;7.38;6.10;;;;;;;24.69;41.79;89556.41;4970365;28;20212;-84
2023/07/11 04:30:51;;;;;;;6.43;5.85;;;;;;;24.76;42.08;89656.16;4968783;28;20208;-83
2023/07/11 04:33:17;;;;;;;7.15;6.03;;;;;;;24.83;41.17;89526.41;4969436;28;20665;-83
2023/07/11 04:35:45;;;;;;;6.53;5.68;;;;;;;24.84;41.16;89498.97;4968371;28;20657;-82
2023/07/11 04:38:11;;;;;;;6.70;6.00;;;;;;;24.85;41.17;89472.28;4970341;28;20632;-84
2023/07/11 04:40:38;;;;;;;6.30;5.70;;;;;;;24.93;41.38;89472.84;4970702;28;20235;-84
2023/07/11 04:43:04;;;;;;;6.28;5.78;;;;;;;25.01;41.35;89553.09;4970801;28;20212;-82
2023/07/11 04:45:31;;;;;;;6.20;5.60;;;;;;;25.05;41.37;89606.31;4971056;28;20223;-84
2023/07/11 04:47:58;;;;;;;6.50;6.00;;;;;;;25.12;41.36;89630.59;4970409;28;20196;-84
2023/07/11 04:50:25;;;;;;;7.47;5.72;;;;;;;25.17;41.33;89597.03;4970778;28;20263;-87
2023/07/11 04:52:51;;;;;;;6.82;6.10;;;;;;;25.15;41.22;89499.38;4967807;28;20222;-89
2023/07/11 04:55:18;;;;;;;6.63;6.00;;;;;;;25.16;40.98;89496.34;4976158;28;20234;-87
2023/07/11 04:57:44;;;;;;;6.47;5.88;;;;;;;25.17;40.92;89476.78;4963867;28;20196;-88
2023/07/11 05:00:12;;;;;;;6.68;6.10;;;;;;;25.17;41.42;89500.44;4969373;28;20580;-88
2023/07/11 05:02:39;;;;;;;9.13;6.57;;;;;;;25.17;41.23;89539.16;4970087;28;20266;-88
2023/07/11 05:05:07;;;;;;;8.38;6.68;;;;;;;25.17;41.74;89558.31;4969821;28;20209;-88
2023/07/11 05:07:34;;;;;;;7.15;6.45;;;;;;;25.20;41.55;89533.81;4969535;28;20211;-87
2023/07/11 05:10:00;;;;;;;11.18;6.75;;;;;;;25.10;41.93;89569.00;4967633;28;20270;-88
2023/07/11 05:12:27;;;;;;;6.90;6.20;;;;;;;25.12;41.98;89587.75;4969590;28;20212;-88
2023/07/11 05:14:53;;;;;;;6.88;6.32;;;;;;;25.21;41.99;89681.91;4969960;28;20865;-88
2023/07/11 05:17:20;;;;;;;6.50;6.00;;;;;;;25.22;41.98;89639.38;4970306;28;21032;-88
2023/07/11 05:19:51;;;;;;;6.13;5.63;;;;;;;25.22;41.61;89526.22;4970931;28;20204;-86
2023/07/11 05:22:19;;;;;;;7.07;6.20;;;;;;;25.29;41.34;89514.81;4970255;28;20849;-87
2023/07/11 05:24:45;;;;;;;7.15;6.45;;;;;;;25.29;41.12;89480.59;4967917;28;20199;-88
2023/07/11 05:27:24;;;;;;;;;;;;;;;;;;;;;
2023/07/11 05:29:51;;;;;;;9.75;6.20;;;;;;;25.42;40.63;89429.47;4969049;28;20234;-88
2023/07/11 05:32:17;;;;;;;7.35;6.38;;;;;;;25.47;39.44;89228.19;4968996;28;20239;-87
2023/07/11 05:34:43;;;;;;;6.30;5.70;;;;;;;25.53;39.62;89281.06;4959310;28;20240;-87
2023/07/11 05:37:10;;;;;;;7.45;6.55;;;;;;;25.64;39.31;89266.44;4969291;28;20721;-87
2023/07/11 05:39:40;;;;;;;9.05;6.25;;;;;;;25.70;39.53;89291.06;4969354;28;20200;-87
2023/07/11 05:42:11;;;;;;;20.75;14.63;;;;;;;25.76;39.79;89331.53;4966702;28;20442;-87
2023/07/11 05:44:39;;;;;;;10.38;9.30;;;;;;;25.88;39.30;89313.47;4969770;28;20208;-87
2023/07/11 05:47:06;;;;;;;19.70;16.48;;;;;;;25.93;39.91;89363.75;4969205;28;20216;-86
2023/07/11 05:49:42;;;;;;;10.50;9.52;;;;;;;26.05;39.11;89352.44;4969283;28;20231;-86
2023/07/11 05:52:09;;;;;;;13.43;12.13;;;;;;;26.13;39.26;89308.91;4968965;28;20200;-86
2023/07/11 05:54:42;;;;;;;9.80;8.90;;;;;;;26.17;39.22;89267.34;4969339;28;20682;-86
2023/07/11 05:57:09;;;;;;;8.80;7.00;;;;;;;26.27;38.62;89227.94;4967593;28;20255;-86
2023/07/11 05:59:35;;;;;;;10.65;7.75;;;;;;;26.38;37.95;89149.97;4972485;28;20297;-86
2023/07/11 06:02:05;;;;;;;7.50;6.68;;;;;;;26.46;37.94;89079.31;4972280;28;20719;-87
2023/07/11 06:04:31;;;;;;;7.70;6.90;;;;;;;26.57;38.10;89092.09;4980197;28;20203;-88
2023/07/11 06:06:58;;;;;;;10.43;6.60;;;;;;;26.65;37.78;89037.94;4992004;28;20231;-87
2023/07/11 06:09:25;;;;;;;7.35;6.28;;;;;;;26.71;37.14;88920.19;4992196;28;20227;-87
2023/07/11 06:11:58;;;;;;;6.82;5.95;;;;;;;26.72;36.72;88777.38;4985681;28;20196;-88
2023/07/11 06:14:24;;;;;;;8.95;5.82;;;;;;;26.67;34.02;88078.63;4971084;28;20231;-88
2023/07/11 06:16:55;;;;;;;8.50;5.70;;;;;;;26.58;33.73;87870.53;4972713;28;20319;-88
2023/07/11 06:19:21;;;;;;;6.10;5.50;;;;;;;26.48;34.73;87939.19;4992086;28;20207;-87
2023/07/11 06:21:48;;;;;;;6.15;5.65;;;;;;;26.58;34.96;88047.84;4992002;28;20202;-87
2023/07/11 06:24:17;;;;;;;7.72;5.97;;;;;;;26.75;34.94;88177.97;4992420;28;20207;-87
2023/07/11 06:26:45;;;;;;;7.95;5.90;;;;;;;26.80;34.11;87965.69;4992412;28;20872;-88
2023/07/11 06:29:21;;;;;;;6.13;5.60;;;;;;;26.84;33.44;87771.13;4971000;28;20310;-88
2023/07/11 06:31:47;;;;;;;6.32;5.72;;;;;;;26.95;33.16;87779.13;4972049;28;20339;-87
2023/07/11 06:34:19;;;;;;;7.43;5.80;;;;;;;27.09;32.66;87764.41;4972476;28;20200;-87
2023/07/11 06:36:46;;;;;;;7.82;6.10;;;;;;;27.03;32.78;87676.59;4972512;28;20232;-88
2023/07/11 06:39:13;;;;;;;6.30;5.70;;;;;;;27.09;33.62;87891.72;4971878;28;20199;-87
2023/07/11 06:41:40;;;;;;;8.65;5.25;;;;;;;27.15;33.51;87817.91;4972097;28;20700;-87
2023/07/11 06:44:09;;;;;;;5.95;5.43;;;;;;;27.18;32.45;87669.25;4972016;28;20243;-88
2023/07/11 06:46:37;;;;;;;7.13;6.00;;;;;;;27.28;32.49;87739.13;4970130;28;20225;-87
2023/07/11 06:49:03;;;;;;;18.40;16.55;;;;;;;27.33;32.48;87688.28;4952212;28;20201;-88
2023/07/11 06:51:31;;;;;;;8.15;7.38;;;;;;;27.41;32.57;87765.09;4969573;28;20434;-87
2023/07/11 06:53:57;;;;;;;8.07;7.32;;;;;;;27.56;31.78;87617.84;4971145;28;20695;-87
2023/07/11 06:56:24;;;;;;;7.78;5.60;;;;;;;27.48;30.21;87128.72;4971714;28;20267;-87
2023/07/11 06:58:50;;;;;;;6.20;5.55;;;;;;;27.57;30.34;87149.56;4971788;28;20482;-88
2023/07/11 07:01:21;;;;;;;6.88;5.40;;;;;;;27.63;30.03;87194.41;4969639;28;20661;-87
2023/07/11 07:03:50;;;;;;;7.22;4.78;;;;;;;27.63;27.45;88623.25;4973236;28;20320;-88
2023/07/11 07:06:19;;;;;;;5.60;5.00;;;;;;;27.65;26.90;88750.28;4991373;28;20314;-88
2023/07/11 07:08:46;;;;;;;7.05;4.75;;;;;;;27.72;26.98;88955.19;4989378;28;20629;-87
2023/07/11 07:11:12;;;;;;;5.40;4.82;;;;;;;27.78;26.33;88726.28;4970678;28;20872;-87
2023/07/11 07:13:41;;;;;;;5.97;4.38;;;;;;;27.83;26.05;88692.09;4970869;28;20200;-87
2023/07/11 07:16:09;;;;;;;5.40;4.85;;;;;;;27.93;26.67;88874.28;4971387;28;20224;-87
2023/07/11 07:18:38;;;;;;;5.68;4.72;;;;;;;28.01;25.89;88799.53;4969931;28;20212;-88
2023/07/11 07:21:06;;;;;;;5.47;4.50;;;;;;;28.03;25.08;88611.50;4970868;28;20204;-87
2023/07/11 07:23:34;;;;;;;5.20;4.70;;;;;;;28.13;25.56;88763.50;4970878;28;20204;-88
2023/07/11 07:26:02;;;;;;;4.85;4.45;;;;;;;28.06;25.80;88717.03;4971352;28;20239;-88
2023/07/11 07:28:30;;;;;;;7.38;4.85;;;;;;;28.14;25.83;88764.97;4971024;28;20204;-87
2023/07/11 07:30:59;;;;;;;8.02;5.10;;;;;;;28.24;25.43;88770.94;4971066;28;20223;-87
2023/07/11 07:33:28;;;;;;;6.72;5.13;;;;;;;28.26;25.74;88742.16;4981304;28;20236;-87
2023/07/11 07:35:57;;;;;;;5.35;4.43;;;;;;;28.29;26.02;88897.91;4970883;28;20235;-88
2023/07/11 07:38:27;;;;;;;7.32;6.45;;;;;;;28.31;25.31;88826.84;4971017;28;20279;-88
2023/07/11 07:40:54;;;;;;;5.75;4.90;;;;;;;28.34;24.63;88695.69;4970944;28;20204;-87
2023/07/11 07:43:21;;;;;;;5.55;4.55;;;;;;;28.40;24.48;88773.19;4971341;28;20585;-87
2023/07/11 07:45:48;;;;;;;5.63;5.00;;;;;;;28.47;24.52;88879.34;4970940;28;20597;-88
2023/07/11 07:48:15;;;;;;;4.95;4.40;;;;;;;28.68;24.92;89041.53;4970594;28;20196;-88
2023/07/11 07:50:41;;;;;;;4.88;4.35;;;;;;;28.84;25.03;89123.25;4968845;28;20231;-87
2023/07/11 07:53:08;;;;;;;5.88;4.70;;;;;;;28.96;24.87;89118.19;4970453;28;20205;-88
2023/07/11 07:55:37;;;;;;;4.93;4.53;;;;;;;29.03;23.87;89015.41;4970468;28;20231;-88
2023/07/11 07:58:20;;;;;;;6.50;4.80;;;;;;;29.19;24.98;89228.69;4970462;28;20208;-88
2023/07/11 08:00:46;;;;;;;6.28;4.80;;;;;;;29.39;24.97;89266.03;4970624;28;20196;-87
2023/07/11 08:03:16;;;;;;;7.72;4.85;;;;;;;29.51;24.27;89235.22;4970039;28;20200;-87
2023/07/11 08:05:42;;;;;;;6.25;5.22;;;;;;;29.47;23.91;88975.81;4980594;28;20219;-88
2023/07/11 08:08:09;;;;;;;5.13;4.63;;;;;;;29.56;24.05;89104.81;4970394;28;20578;-87
2023/07/11 08:10:39;;;;;;;5.40;4.90;;;;;;;29.65;23.73;89114.59;4970318;28;20231;-88
2023/07/11 08:13:06;;;;;;;8.82;7.35;;;;;;;29.62;24.61;89216.94;4971516;28;20648;-88
2023/07/11 08:15:35;;;;;;;5.82;4.95;;;;;;;29.53;24.03;89113.66;4970546;28;20224;-88
2023/07/11 08:18:01;;;;;;;7.60;5.28;;;;;;;29.60;24.18;89282.88;4980005;28;20200;-87
2023/07/11 08:20:31;;;;;;;5.38;4.88;;;;;;;29.68;24.51;89407.78;4979741;28;20208;-87
2023/07/11 08:22:57;;;;;;;5.80;5.10;;;;;;;29.77;24.88;89561.47;4967643;28;20200;-88
2023/07/11 08:25:26;;;;;;;6.22;5.45;;;;;;;29.89;24.69;89561.31;4970185;28;20235;-87
2023/07/11 08:27:53;;;;;;;8.43;5.60;;;;;;;29.87;24.41;89464.84;4970540;28;20299;-87
2023/07/11 08:30:22;;;;;;;7.22;5.60;;;;;;;29.93;24.48;89489.59;4969597;28;20232;-88
2023/07/11 08:32:48;;;;;;;5.53;5.03;;;;;;;29.92;24.82;89562.34;4970107;28;20208;-88
2023/07/11 08:35:18;;;;;;;5.60;5.10;;;;;;;29.93;24.37;89528.63;4969838;28;20200;-88
2023/07/11 08:37:44;;;;;;;6.70;5.40;;;;;;;30.01;24.90;89599.50;4968335;28;20221;-87
2023/07/11 08:40:18;;;;;;;6.28;4.97;;;;;;;30.15;24.50;89757.25;4969676;28;20278;-87
2023/07/11 08:42:45;;;;;;;6.50;5.40;;;;;;;30.28;24.41;89842.72;4969770;28;20200;-87
2023/07/11 08:45:20;;;;;;;5.60;5.03;;;;;;;30.48;24.68;89949.19;4969690;28;20224;-88
2023/07/11 08:47:54;;;;;;;6.93;5.68;;;;;;;30.62;23.83;89867.56;4970022;28;20206;-88
2023/07/11 08:50:28;;;;;;;6.05;5.43;;;;;;;30.64;23.78;89825.41;4970288;28;20227;-88
2023/07/11 08:53:10;;;;;;;7.38;5.05;;;;;;;30.67;23.38;89760.84;4970055;28;20231;-88
2023/07/11 08:55:44;;;;;;;7.57;5.20;;;;;;;30.66;23.73;89831.00;4968205;28;20587;-88
2023/07/11 08:58:16;;;;;;;8.95;5.72;;;;;;;30.76;23.64;89843.13;4969882;28;20258;-88
2023/07/11 09:00:48;;;;;;;6.50;5.50;;;;;;;30.81;24.03;89898.25;4969949;28;20207;-87
2023/07/11 09:03:26;;;;;;;5.97;5.18;;;;;;;30.92;24.36;89952.44;4969557;28;20677;-87
2023/07/11 09:06:04;;;;;;;6.40;5.10;;;;;;;31.06;23.89;89905.22;4988230;28;20234;-87
2023/07/11 09:08:31;;;;;;;7.55;5.47;;;;;;;31.21;24.03;90052.97;4989146;28;20219;-88
2023/07/11 09:11:05;;;;;;;9.38;5.47;;;;;;;31.35;23.88;90035.03;4976693;28;20227;-88
2023/07/11 09:13:48;;;;;;;16.58;15.15;;;;;;;31.51;23.62;90021.44;4969165;28;20207;-88
2023/07/11 09:16:29;;;;;;;7.10;5.93;;;;;;;31.58;23.07;89933.44;4969739;28;20844;-87
2023/07/11 09:19:03;;;;;;;7.80;6.07;;;;;;;31.70;23.08;89948.53;4986076;28;20211;-87
2023/07/11 09:21:38;;;;;;;7.03;5.95;;;;;;;31.92;23.41;90010.25;4989241;28;20203;-87
2023/07/11 09:24:16;;;;;;;6.82;5.45;;;;;;;32.03;23.10;89977.84;4988807;28;20203;-87
2023/07/11 09:26:50;;;;;;;8.52;5.60;;;;;;;32.09;23.35;90008.00;4980075;28;20220;-87
2023/07/11 09:29:18;;;;;;;7.88;5.63;;;;;;;32.28;22.77;90014.06;4969468;28;20214;-87
2023/07/11 09:31:56;;;;;;;8.48;5.88;;;;;;;32.28;22.61;89954.78;4968845;28;20743;-88
2023/07/11 09:34:27;;;;;;;6.72;5.60;;;;;;;32.31;23.00;89983.88;4972676;28;20223;-88
2023/07/11 09:36:57;;;;;;;6.38;5.53;;;;;;;32.36;22.64;89942.59;4973122;28;20239;-87
2023/07/11 09:39:35;;;;;;;6.65;5.35;;;;;;;32.37;22.68;89902.25;4972753;28;20204;-87
2023/07/11 09:42:08;;;;;;;7.78;5.85;;;;;;;32.43;22.40;89971.56;4971678;28;20806;-88
2023/07/11 09:44:36;;;;;;;6.00;5.45;;;;;;;32.57;22.52;90040.13;4972728;28;20219;-88
2023/07/11 09:47:21;;;;;;;5.97;5.38;;;;;;;32.76;21.77;90320.44;4971771;28;20661;-88
2023/07/11 09:49:51;;;;;;;7.00;5.68;;;;;;;32.79;21.79;90346.19;4973180;28;20208;-88
2023/07/11 09:52:26;;;;;;;13.32;11.98;;;;;;;32.87;21.60;90379.38;4972731;28;20252;-88
2023/07/11 09:55:06;;;;;;;6.57;5.93;;;;;;;33.01;21.31;90356.72;4973370;28;20200;-88
2023/07/11 09:57:34;;;;;;;6.00;5.45;;;;;;;33.08;21.10;90383.81;4972936;28;20196;-88
2023/07/11 10:00:11;;;;;;;6.05;5.55;;;;;;;33.21;20.90;90407.66;4970949;28;20247;-88
2023/07/11 10:02:45;;;;;;;6.78;5.10;;;;;;;33.41;20.28;90426.66;4953456;29;20633;-88
2023/07/11 10:05:15;;;;;;;5.82;5.22;;;;;;;33.55;20.04;90415.38;4979775;28;20587;-88
2023/07/11 10:08:40;;;;;;;7.03;5.72;;;;;;;33.70;18.55;90236.06;4978631;28;20223;-88
2023/07/11 10:11:16;;;;;;;6.93;5.22;;;;;;;33.76;18.48;90290.28;4973283;28;20260;-88
2023/07/11 10:13:51;;;;;;;6.15;5.63;;;;;;;33.65;18.18;90250.78;4972466;28;20207;-88
2023/07/11 10:16:23;;;;;;;10.25;5.85;;;;;;;33.59;17.95;90279.97;4970403;28;20302;-89
2023/07/11 10:19:15;;;;;;;;;;;;;;;;;;;;;
2023/07/11 10:22:18;;;;;;;6.45;5.82;;;;;;;33.89;17.99;90395.63;4991968;28;20192;-89
2023/07/11 10:24:50;;;;;;;8.30;7.03;;;;;;;33.66;17.25;90315.50;4991727;28;20215;-88
2023/07/11 10:27:37;;;;;;;7.07;6.38;;;;;;;33.80;18.02;90459.69;4991691;28;20230;-88
2023/07/11 10:30:15;;;;;;;6.80;5.78;;;;;;;33.89;17.52;90499.69;4991608;28;20243;-89
2023/07/11 10:32:51;;;;;;;7.72;5.90;;;;;;;34.01;17.76;90497.31;4970965;28;20215;-89
2023/07/11 10:37:54;;;;;;;6.20;5.60;;;;;;;34.37;17.77;90588.06;5009471;28;20336;-88
2023/07/11 10:40:27;;;;;;;6.20;5.55;;;;;;;34.48;17.64;90584.91;5011372;28;20593;-88
2023/07/11 10:43:06;;;;;;;6.40;5.80;;;;;;;34.49;18.04;90547.06;5010521;28;20663;-88
2023/07/11 10:45:47;;;;;;;6.43;5.82;;;;;;;34.59;17.47;90529.09;5010272;28;20230;-88
2023/07/11 10:48:32;;;;;;;7.78;6.05;;;;;;;34.54;16.56;90356.84;5008983;28;20195;-88
2023/07/11 10:51:05;;;;;;;7.03;5.63;;;;;;;34.64;16.84;90394.91;5010945;28;20230;-88
2023/07/11 10:53:39;;;;;;;6.40;5.63;;;;;;;34.61;16.81;90318.41;5010546;28;20414;-88
2023/07/11 10:56:13;;;;;;;6.57;5.95;;;;;;;34.77;17.00;90504.25;5006460;28;20230;-88
2023/07/11 10:58:40;;;;;;;6.22;5.63;;;;;;;34.75;16.59;90389.09;4990658;28;20249;-88
2023/07/11 11:01:24;;;;;;;6.43;5.82;;;;;;;34.80;16.76;90369.81;4991066;28;20226;-87
2023/07/11 11:04:02;;;;;;;6.53;5.88;;;;;;;34.94;17.12;90414.53;5000236;28;20273;-87
2023/07/11 11:06:49;;;;;;;6.20;5.53;;;;;;;34.89;16.26;90236.88;5006749;28;20219;-87
2023/07/11 11:09:23;;;;;;;7.43;5.82;;;;;;;35.03;16.21;90194.56;5001038;28;20234;-88
2023/07/11 11:12:00;;;;;;;6.28;5.78;;;;;;;35.28;16.20;90228.81;5010627;28;20309;-88
2023/07/11 11:14:37;;;;;;;7.22;5.18;;;;;;;35.42;15.74;90121.09;5009161;28;20202;-87
2023/07/11 11:17:28;;;;;;;6.10;5.60;;;;;;;35.49;16.12;90128.00;5009917;28;20883;-89
2023/07/11 11:20:10;;;;;;;6.20;5.03;;;;;;;35.61;16.00;90134.97;5000908;28;20227;-89
2023/07/11 11:22:59;;;;;;;6.47;5.13;;;;;;;35.62;15.31;90003.44;5006772;28;20199;-88
2023/07/11 11:25:39;;;;;;;6.85;5.35;;;;;;;35.66;15.44;89984.50;5008029;28;20277;-88
2023/07/11 11:28:17;;;;;;;6.80;5.50;;;;;;;35.67;15.39;89985.97;5008743;28;20202;-88
2023/07/11 11:30:53;;;;;;;6.00;5.40;;;;;;;35.53;15.15;89861.09;5009253;28;20222;-88
2023/07/11 11:33:56;;;;;;;6.07;5.22;;;;;;;35.18;15.25;89794.38;5006302;28;20612;-89
2023/07/11 11:36:34;;;;;;;5.75;5.03;;;;;;;35.23;15.93;89936.09;5008204;28;20240;-89
2023/07/11 11:40:06;;;;;;;;;;;;;;;;;;;;;
2023/07/11 11:45:29;;;;;;;9.38;8.48;;;;;;;35.89;15.70;90055.84;5009004;28;20213;-88
2023/07/11 11:48:04;;;;;;;6.13;5.53;;;;;;;35.73;15.75;89978.75;5009527;28;20684;-89
2023/07/11 11:50:39;;;;;;;5.72;5.22;;;;;;;35.68;15.71;89966.06;5009918;28;20683;-89
2023/07/11 11:53:55;;;;;;;5.68;5.13;;;;;;;35.41;15.75;89915.69;5008059;28;20209;-89
2023/07/11 11:59:56;;;;;;;6.22;5.40;;;;;;;35.40;15.80;89973.03;4826388;29;20208;-88